createdAt,value
2019-03-22T00:02:27.558Z,99.90
2019-03-22T00:05:01.928Z,99.90
2019-03-22T00:07:33.854Z,99.90
2019-03-22T00:10:05.590Z,99.90
2019-03-22T00:12:39.139Z,99.90
2019-03-22T00:15:10.651Z,99.90
2019-03-22T00:17:42.689Z,99.90
2019-03-22T00:20:17.997Z,99.90
2019-03-22T00:22:49.174Z,99.90
2019-03-22T00:25:22.571Z,99.90
2019-03-22T00:27:54.941Z,99.90
2019-03-22T00:30:29.239Z,99.90
2019-03-22T00:33:00.477Z,99.90
2019-03-22T00:35:31.996Z,99.90
2019-03-22T00:38:08.263Z,99.90
2019-03-22T00:40:41.838Z,99.90
2019-03-22T00:43:14.087Z,99.90
2019-03-22T00:45:45.946Z,99.90
2019-03-22T00:48:24.955Z,99.90
2019-03-22T00:51:01.059Z,99.90
2019-03-22T00:53:34.373Z,99.90
2019-03-22T00:56:06.224Z,99.90
2019-03-22T00:58:38.898Z,99.90
2019-03-22T01:01:12.413Z,99.90
2019-03-22T01:03:45.481Z,99.90
2019-03-22T01:06:17.447Z,99.90
2019-03-22T01:08:49.509Z,99.90
2019-03-22T01:11:22.502Z,99.90
2019-03-22T01:13:54.054Z,99.90
2019-03-22T01:16:25.980Z,99.90
2019-03-22T01:18:57.459Z,99.90
2019-03-22T01:21:29.026Z,99.90
2019-03-22T01:24:01.457Z,99.90
2019-03-22T01:26:35.842Z,99.90
2019-03-22T01:29:07.137Z,99.90
2019-03-22T01:31:40.669Z,99.90
2019-03-22T01:34:13.594Z,99.90
2019-03-22T01:36:44.799Z,99.90
2019-03-22T01:39:16.098Z,99.90
2019-03-22T01:41:47.615Z,99.90
2019-03-22T01:44:19.674Z,99.90
2019-03-22T01:46:51.377Z,99.90
2019-03-22T01:49:23.595Z,99.90
2019-03-22T02:08:25.313Z,99.90
2019-03-22T02:11:01.034Z,99.90
2019-03-22T02:13:34.490Z,99.90
2019-03-22T02:16:09.071Z,99.90
2019-03-22T02:18:42.892Z,99.90
2019-03-22T02:21:16.215Z,99.90
2019-03-22T02:23:52.054Z,99.90
2019-03-22T02:26:23.427Z,99.90
2019-03-22T02:28:55.564Z,99.90
2019-03-22T02:31:27.339Z,99.90
2019-03-22T02:34:02.779Z,99.90
2019-03-22T02:36:35.175Z,99.90
2019-03-22T02:39:12.313Z,99.90
2019-03-22T02:41:44.510Z,99.90
2019-03-22T02:44:17.362Z,99.90
2019-03-22T02:46:55.624Z,99.90
2019-03-22T02:49:29.582Z,99.90
2019-03-22T02:52:02.474Z,99.90
2019-03-22T02:54:34.053Z,99.90
2019-03-22T02:57:06.358Z,99.90
2019-03-22T02:59:38.099Z,99.90
2019-03-22T03:02:10.623Z,99.90
2019-03-22T03:04:43.776Z,99.90
2019-03-22T03:07:16.029Z,99.90
2019-03-22T03:09:50.630Z,99.90
2019-03-22T03:12:23.183Z,99.90
2019-03-22T03:14:58.188Z,99.90
2019-03-22T03:17:31.230Z,99.90
2019-03-22T03:20:03.421Z,99.90
2019-03-22T03:22:35.065Z,99.90
2019-03-22T03:25:08.471Z,99.90
2019-03-22T03:27:40.862Z,99.90
2019-03-22T03:30:14.166Z,99.90
2019-03-22T03:32:50.672Z,99.90
2019-03-22T03:35:37.491Z,99.90
2019-03-22T03:38:35.383Z,99.90
2019-03-22T03:41:08.859Z,99.90
2019-03-22T03:43:40.545Z,99.90
2019-03-22T03:46:12.023Z,99.90
2019-03-22T03:48:47.234Z,99.90
2019-03-22T03:51:27.266Z,99.90
2019-03-22T03:53:59.475Z,99.90
2019-03-22T03:56:31.329Z,99.90
2019-03-22T03:59:03.987Z,99.90
2019-03-22T04:01:37.342Z,99.90
2019-03-22T04:04:09.048Z,99.90
2019-03-22T04:06:45.439Z,99.90
2019-03-22T04:09:20.595Z,99.90
2019-03-22T04:11:53.468Z,99.90
2019-03-22T04:14:26.933Z,99.90
2019-03-22T04:16:58.897Z,99.90
2019-03-22T04:19:30.274Z,99.90
2019-03-22T04:22:05.868Z,99.90
2019-03-22T04:24:44.895Z,99.90
2019-03-22T04:27:18.731Z,99.90
2019-03-22T04:29:53.290Z,99.90
2019-03-22T04:32:29.593Z,99.90
2019-03-22T04:35:02.499Z,99.90
2019-03-22T04:37:50.180Z,99.90
2019-03-22T04:40:25.789Z,99.90
2019-03-22T04:43:00.131Z,99.90
2019-03-22T04:45:34.755Z,99.90
2019-03-22T04:48:12.206Z,99.90
2019-03-22T04:50:47.040Z,99.90
2019-03-22T04:53:24.129Z,99.90
2019-03-22T04:56:00.433Z,99.90
2019-03-22T04:58:32.618Z,99.90
2019-03-22T05:01:05.728Z,99.90
2019-03-22T05:03:38.815Z,99.90
2019-03-22T05:06:14.647Z,99.90
2019-03-22T05:08:48.078Z,99.90
2019-03-22T05:11:23.246Z,99.90
2019-03-22T05:13:58.170Z,99.90
2019-03-22T05:16:31.943Z,99.90
2019-03-22T05:19:04.534Z,99.90
2019-03-22T05:21:38.570Z,99.90
2019-03-22T05:24:12.310Z,99.90
2019-03-22T05:26:47.569Z,99.90
2019-03-22T05:29:30.136Z,99.90
2019-03-22T05:32:13.300Z,99.90
2019-03-22T05:34:44.590Z,99.90
2019-03-22T05:37:15.879Z,99.90
2019-03-22T05:39:50.844Z,99.90
2019-03-22T05:42:22.944Z,99.90
2019-03-22T05:44:55.478Z,99.90
2019-03-22T05:47:28.228Z,99.90
2019-03-22T05:49:59.569Z,99.90
2019-03-22T05:52:32.943Z,99.90
2019-03-22T05:55:05.524Z,99.90
2019-03-22T05:57:36.819Z,99.90
2019-03-22T06:00:10.298Z,99.90
2019-03-22T06:02:41.604Z,99.90
2019-03-22T06:05:13.132Z,99.90
2019-03-22T06:07:47.462Z,99.90
2019-03-22T06:10:21.360Z,99.90
2019-03-22T06:12:57.083Z,99.90
2019-03-22T06:15:30.110Z,99.90
2019-03-22T06:18:03.699Z,99.90
2019-03-22T06:20:35.037Z,99.90
2019-03-22T06:23:08.256Z,99.90
2019-03-22T06:25:39.734Z,99.90
2019-03-22T06:28:11.799Z,99.90
2019-03-22T06:30:43.307Z,99.90
2019-03-22T06:33:14.985Z,99.90
2019-03-22T06:35:47.241Z,99.90
2019-03-22T06:38:18.647Z,99.90
2019-03-22T06:40:56.550Z,99.90
2019-03-22T06:43:28.090Z,99.90
2019-03-22T06:45:59.437Z,99.90
2019-03-22T06:48:34.342Z,99.90
2019-03-22T06:51:05.828Z,99.90
2019-03-22T06:53:39.394Z,99.90
2019-03-22T06:56:13.685Z,99.90
2019-03-22T06:58:45.100Z,99.90
2019-03-22T07:01:19.281Z,99.90
2019-03-22T07:03:51.810Z,99.90
2019-03-22T07:06:24.094Z,99.90
2019-03-22T07:08:58.066Z,99.90
2019-03-22T07:11:33.355Z,99.90
2019-03-22T07:14:05.737Z,99.90
2019-03-22T07:16:40.811Z,99.90
2019-03-22T07:19:12.237Z,99.90
2019-03-22T07:21:58.021Z,99.90
2019-03-22T07:24:29.337Z,99.90
2019-03-22T07:27:07.195Z,99.90
2019-03-22T07:29:39.210Z,99.90
2019-03-22T07:32:13.590Z,99.90
2019-03-22T07:34:44.995Z,99.90
2019-03-22T07:37:17.627Z,99.90
2019-03-22T07:39:50.043Z,99.90
2019-03-22T07:42:23.026Z,99.90
2019-03-22T07:44:54.801Z,99.90
2019-03-22T07:47:28.074Z,99.90
2019-03-22T07:50:01.756Z,99.90
2019-03-22T07:52:36.156Z,99.90
2019-03-22T07:55:09.103Z,99.90
2019-03-22T07:57:41.430Z,99.90
2019-03-22T08:00:14.758Z,99.90
2019-03-22T08:02:46.057Z,99.90
2019-03-22T08:05:17.345Z,99.90
2019-03-22T08:07:48.570Z,99.90
2019-03-22T08:10:19.825Z,99.90
2019-03-22T08:12:52.418Z,99.90
2019-03-22T08:15:33.479Z,99.90
2019-03-22T08:18:04.756Z,99.90
2019-03-22T08:20:38.625Z,99.90
2019-03-22T08:23:19.648Z,99.90
2019-03-22T08:25:52.278Z,99.90
2019-03-22T08:28:24.342Z,99.90
2019-03-22T08:30:56.500Z,99.90
2019-03-22T08:33:27.843Z,99.90
2019-03-22T08:35:59.231Z,99.90
2019-03-22T08:38:30.763Z,99.90
2019-03-22T08:41:03.648Z,99.90
2019-03-22T08:43:35.673Z,99.90
2019-03-22T08:46:07.274Z,99.90
2019-03-22T08:48:40.390Z,99.90
2019-03-22T08:51:12.024Z,99.90
2019-03-22T08:53:54.639Z,99.90
2019-03-22T08:56:17.762Z,99.90
2019-03-22T08:58:51.098Z,99.90
2019-03-22T09:01:22.880Z,99.90
2019-03-22T09:03:54.232Z,99.90
2019-03-22T09:06:27.082Z,99.90
2019-03-22T09:09:00.643Z,99.90
2019-03-22T09:11:38.772Z,99.90
2019-03-22T09:14:10.398Z,99.90
2019-03-22T09:16:41.909Z,99.90
2019-03-22T09:19:16.054Z,99.90
2019-03-22T09:21:47.341Z,99.90
2019-03-22T09:24:19.134Z,99.90
2019-03-22T09:26:51.102Z,99.90
2019-03-22T09:29:22.498Z,99.90
2019-03-22T09:31:53.954Z,99.90
2019-03-22T09:34:33.650Z,99.90
2019-03-22T09:36:58.474Z,99.90
2019-03-22T09:39:30.345Z,99.90
2019-03-22T09:42:01.798Z,99.90
2019-03-22T09:44:42.839Z,99.90
2019-03-22T09:47:06.135Z,99.90
2019-03-22T09:49:37.610Z,99.90
2019-03-22T09:52:09.626Z,99.90
2019-03-22T09:54:41.860Z,99.90
2019-03-22T09:57:13.233Z,99.90
2019-03-22T09:59:46.337Z,99.90
2019-03-22T10:02:18.483Z,99.90
2019-03-22T10:04:50.516Z,99.90
2019-03-22T10:07:21.996Z,99.90
2019-03-22T10:09:53.674Z,99.90
2019-03-22T10:12:25.058Z,99.90
2019-03-22T10:14:56.406Z,99.90
2019-03-22T10:17:27.857Z,99.90
2019-03-22T10:19:59.196Z,99.80
2019-03-22T10:22:30.631Z,99.50
2019-03-22T10:25:02.025Z,99.50
2019-03-22T10:27:33.391Z,98.90
2019-03-22T10:30:06.356Z,99.20
2019-03-22T10:32:37.708Z,99.20
2019-03-22T10:35:09.307Z,99.00
2019-03-22T10:38:58.040Z,98.80
2019-03-22T10:41:34.594Z,98.40
2019-03-22T10:44:05.962Z,98.10
2019-03-22T10:46:37.478Z,97.20
2019-03-22T10:49:08.814Z,97.10
2019-03-22T10:51:40.129Z,96.80
2019-03-22T10:54:13.726Z,97.00
2019-03-22T10:56:45.602Z,96.40
2019-03-22T10:59:17.886Z,95.60
2019-03-22T11:02:02.678Z,94.30
2019-03-22T11:04:23.009Z,94.80
2019-03-22T11:06:55.125Z,93.80
2019-03-22T11:09:26.683Z,94.20
2019-03-22T11:11:59.549Z,94.50
2019-03-22T11:14:30.793Z,93.70
2019-03-22T11:17:02.583Z,93.30
2019-03-22T11:19:33.934Z,94.20
2019-03-22T11:22:07.843Z,94.00
2019-03-22T11:24:41.882Z,92.60
2019-03-22T11:27:13.931Z,93.10
2019-03-22T11:29:45.622Z,92.50
2019-03-22T11:32:18.110Z,92.00
2019-03-22T11:34:49.585Z,91.20
2019-03-22T11:37:20.953Z,92.30
2019-03-22T11:39:53.181Z,92.40
2019-03-22T11:42:26.480Z,91.40
2019-03-22T11:45:00.737Z,91.50
2019-03-22T11:47:32.140Z,91.30
2019-03-22T11:50:04.294Z,91.20
2019-03-22T11:52:36.334Z,90.20
2019-03-22T11:55:09.637Z,88.00
2019-03-22T11:57:41.173Z,87.30
2019-03-22T12:00:18.890Z,87.90
2019-03-22T12:02:51.905Z,88.50
2019-03-22T12:05:23.814Z,85.70
2019-03-22T12:07:55.109Z,80.40
2019-03-22T12:10:26.499Z,75.80
2019-03-22T12:12:57.889Z,74.20
2019-03-22T12:15:31.892Z,71.90
2019-03-22T12:18:06.466Z,71.00
2019-03-22T12:20:39.456Z,70.60
2019-03-22T12:23:10.837Z,67.20
2019-03-22T12:25:43.171Z,65.90
2019-03-22T12:28:15.188Z,67.90
2019-03-22T12:30:46.850Z,63.00
2019-03-22T12:33:19.785Z,62.70
2019-03-22T12:35:52.558Z,64.90
2019-03-22T12:38:24.861Z,64.20
2019-03-22T12:40:57.745Z,61.40
2019-03-22T12:43:31.573Z,58.30
2019-03-22T12:46:02.898Z,58.50
2019-03-22T12:48:36.398Z,56.10
2019-03-22T12:51:09.315Z,54.40
2019-03-22T12:53:46.363Z,54.90
2019-03-22T12:56:20.988Z,57.10
2019-03-22T12:58:52.247Z,53.70
2019-03-22T13:01:26.139Z,52.70
2019-03-22T13:03:58.347Z,51.00
2019-03-22T13:06:30.436Z,51.20
2019-03-22T13:09:05.997Z,51.10
2019-03-22T13:11:38.158Z,51.10
2019-03-22T13:14:11.518Z,49.00
2019-03-22T13:16:42.949Z,48.90
2019-03-22T13:19:14.315Z,47.00
2019-03-22T13:21:46.618Z,46.40
2019-03-22T13:24:17.954Z,44.80
2019-03-22T13:26:49.375Z,41.80
2019-03-22T13:29:20.575Z,40.80
2019-03-22T13:31:51.904Z,42.00
2019-03-22T13:34:23.321Z,42.70
2019-03-22T13:36:55.197Z,41.60
2019-03-22T13:39:26.560Z,42.70
2019-03-22T13:41:57.898Z,42.00
2019-03-22T13:44:29.262Z,37.40
2019-03-22T13:47:01.747Z,37.70
2019-03-22T13:49:34.322Z,40.00
2019-03-22T13:52:08.178Z,36.70
2019-03-22T13:54:42.775Z,38.10
2019-03-22T13:57:14.205Z,37.80
2019-03-22T13:59:48.518Z,35.40
2019-03-22T14:02:22.912Z,35.40
2019-03-22T14:04:56.145Z,36.60
2019-03-22T14:07:30.458Z,35.00
2019-03-22T14:10:02.006Z,34.60
2019-03-22T14:12:37.258Z,33.30
2019-03-22T14:15:07.537Z,35.70
2019-03-22T14:17:38.916Z,36.50
2019-03-22T14:20:11.489Z,38.10
2019-03-22T14:22:43.149Z,34.60
2019-03-22T14:25:15.253Z,32.50
2019-03-22T14:27:47.306Z,32.40
2019-03-22T14:30:18.585Z,34.20
2019-03-22T14:32:51.158Z,32.90
2019-03-22T14:35:22.505Z,33.70
2019-03-22T14:37:56.678Z,33.80
2019-03-22T14:40:32.320Z,35.00
2019-03-22T14:43:09.925Z,34.70
2019-03-22T14:45:44.375Z,38.00
2019-03-22T14:48:15.836Z,38.50
2019-03-22T14:50:47.255Z,35.90
2019-03-22T14:53:18.723Z,35.00
2019-03-22T14:55:50.144Z,35.30
2019-03-22T14:58:21.537Z,33.60
2019-03-22T15:00:53.046Z,32.50
2019-03-22T15:03:27.667Z,31.50
2019-03-22T15:06:00.651Z,34.40
2019-03-22T15:08:33.745Z,34.40
2019-03-22T15:11:05.217Z,34.00
2019-03-22T15:13:58.770Z,33.80
2019-03-22T15:17:01.163Z,35.60
2019-03-22T15:19:51.502Z,31.20
2019-03-22T15:23:00.232Z,30.60
2019-03-22T15:26:02.903Z,30.50
2019-03-22T15:28:59.327Z,29.20
2019-03-22T15:31:42.621Z,30.20
2019-03-22T15:34:47.822Z,30.70
2019-03-22T15:37:50.548Z,30.00
2019-03-22T15:40:21.953Z,31.80
2019-03-22T15:42:53.366Z,32.60
2019-03-22T15:45:25.798Z,32.00
2019-03-22T15:47:57.128Z,32.20
2019-03-22T15:50:29.833Z,33.40
2019-03-22T15:53:01.146Z,33.70
2019-03-22T15:55:32.621Z,35.20
2019-03-22T15:58:06.242Z,34.80
2019-03-22T16:00:43.270Z,34.90
2019-03-22T16:03:22.669Z,34.70
2019-03-22T16:05:59.143Z,35.50
2019-03-22T16:08:35.470Z,35.00
2019-03-22T16:11:15.113Z,36.30
2019-03-22T16:13:54.065Z,39.90
2019-03-22T16:16:32.515Z,43.50
2019-03-22T16:19:08.742Z,47.40
2019-03-22T16:21:46.079Z,49.00
2019-03-22T16:24:26.975Z,51.00
2019-03-22T16:27:04.523Z,52.20
2019-03-22T16:29:43.685Z,53.00
2019-03-22T16:32:41.129Z,54.20
2019-03-22T16:35:25.350Z,55.10
2019-03-22T16:38:00.126Z,56.30
2019-03-22T16:44:47.910Z,57.30
2019-03-22T16:47:23.749Z,56.70
2019-03-22T16:49:59.467Z,57.70
2019-03-22T16:52:44.737Z,58.00
2019-03-22T16:55:24.407Z,60.70
2019-03-22T16:58:01.103Z,61.50
2019-03-22T17:00:37.068Z,60.90
2019-03-22T17:03:14.637Z,63.30
2019-03-22T17:05:55.764Z,65.90
2019-03-22T17:08:31.854Z,66.50
2019-03-22T17:11:10.422Z,66.60
2019-03-22T17:13:48.448Z,68.00
2019-03-22T17:16:24.840Z,68.50
2019-03-22T17:19:10.228Z,70.30
2019-03-22T17:21:46.374Z,71.00
2019-03-22T17:24:24.455Z,71.50
2019-03-22T17:27:02.295Z,72.80
2019-03-22T17:29:38.484Z,73.80
2019-03-22T17:32:14.496Z,74.50
2019-03-22T17:34:50.649Z,74.80
2019-03-22T17:37:29.955Z,74.90
2019-03-22T17:40:06.261Z,76.10
2019-03-22T17:42:44.729Z,76.40
2019-03-22T17:45:24.996Z,77.30
2019-03-22T17:48:04.211Z,77.20
2019-03-22T17:50:40.283Z,77.50
2019-03-22T17:53:17.419Z,78.70
2019-03-22T17:55:53.281Z,79.90
2019-03-22T17:58:29.309Z,80.20
2019-03-22T18:01:05.775Z,80.70
2019-03-22T18:03:42.916Z,81.30
2019-03-22T18:06:20.226Z,82.10
2019-03-22T18:08:57.802Z,83.00
2019-03-22T18:11:42.269Z,85.00
2019-03-22T18:14:55.356Z,84.90
2019-03-22T18:23:50.629Z,88.10
2019-03-22T18:26:24.672Z,88.90
2019-03-22T18:28:57.575Z,90.10
2019-03-22T18:31:29.092Z,91.00
2019-03-22T18:34:02.866Z,92.10
2019-03-22T18:36:34.642Z,92.20
2019-03-22T18:39:10.290Z,92.50
2019-03-22T18:41:41.694Z,92.70
2019-03-22T18:44:15.222Z,93.50
2019-03-22T18:46:48.830Z,93.90
2019-03-22T18:53:20.738Z,94.30
2019-03-22T18:55:58.986Z,94.50
2019-03-22T18:58:35.270Z,95.00
2019-03-22T19:01:12.556Z,95.00
2019-03-22T19:04:13.949Z,95.00
2019-03-22T19:06:57.879Z,95.20
2019-03-22T19:09:33.964Z,94.90
2019-03-22T19:12:11.379Z,95.20
2019-03-22T19:14:47.119Z,95.50
2019-03-22T19:17:26.339Z,95.30
2019-03-22T19:20:03.277Z,95.10
2019-03-22T19:22:44.549Z,95.20
2019-03-22T19:25:22.868Z,95.30
2019-03-22T19:28:02.507Z,95.50
2019-03-22T19:30:41.991Z,95.30
2019-03-22T19:33:20.418Z,95.30
2019-03-22T19:35:58.255Z,95.40
2019-03-22T19:38:37.122Z,95.70
2019-03-22T19:41:16.126Z,96.10
2019-03-22T19:43:55.603Z,95.90
2019-03-22T19:46:34.538Z,95.90
2019-03-22T19:49:12.808Z,96.10
2019-03-22T19:51:48.844Z,96.00
2019-03-22T19:54:25.357Z,96.10
2019-03-22T19:57:02.698Z,96.10
2019-03-22T19:59:39.248Z,96.20
2019-03-22T20:02:16.827Z,96.30
2019-03-22T20:04:53.697Z,96.50
2019-03-22T20:07:30.070Z,96.80
2019-03-22T20:10:06.849Z,97.20
2019-03-22T20:12:45.215Z,97.30
2019-03-22T20:15:23.160Z,97.60
2019-03-22T20:18:03.806Z,98.00
2019-03-22T20:20:40.528Z,98.20
2019-03-22T20:23:16.785Z,98.60
2019-03-22T20:25:58.336Z,98.70
2019-03-22T20:28:34.961Z,98.90
2019-03-22T20:31:15.358Z,98.70
2019-03-22T20:33:54.535Z,98.50
2019-03-22T20:36:43.977Z,98.50
2019-03-22T20:39:23.527Z,99.00
2019-03-22T20:42:01.473Z,99.70
2019-03-22T20:44:36.305Z,99.30
2019-03-22T20:47:13.501Z,99.30
2019-03-22T20:49:48.982Z,99.20
2019-03-22T20:52:26.302Z,99.20
2019-03-22T20:55:02.214Z,99.10
2019-03-22T20:57:38.118Z,99.00
2019-03-22T21:00:16.399Z,99.30
2019-03-22T21:02:54.030Z,99.50
2019-03-22T21:05:41.354Z,99.70
2019-03-22T21:08:23.612Z,99.80
2019-03-22T21:11:03.272Z,99.60
2019-03-22T21:13:43.827Z,99.60
2019-03-22T21:16:27.551Z,99.50
2019-03-22T21:19:32.799Z,99.40
2019-03-22T21:22:14.351Z,99.40
2019-03-22T21:24:55.397Z,99.50
2019-03-22T21:27:38.504Z,99.40
2019-03-22T21:30:16.101Z,99.60
2019-03-22T21:32:56.645Z,99.60
2019-03-22T21:35:37.350Z,99.60
2019-03-22T21:38:11.486Z,99.90
2019-03-22T21:40:51.210Z,99.90
2019-03-22T21:43:27.309Z,99.90
2019-03-22T21:46:05.004Z,99.90
2019-03-22T21:48:42.515Z,99.90
2019-03-22T21:51:20.343Z,99.90
2019-03-22T21:54:00.044Z,99.90
2019-03-22T21:56:36.117Z,99.90
2019-03-22T21:59:15.429Z,99.90
2019-03-22T22:01:51.702Z,99.90
2019-03-22T22:04:29.675Z,99.90
2019-03-22T22:07:05.671Z,99.90
2019-03-22T22:09:43.944Z,99.90
2019-03-22T22:12:16.236Z,99.90
2019-03-22T22:14:47.532Z,99.90
2019-03-22T22:17:18.882Z,99.90
2019-03-22T22:19:50.276Z,99.90
2019-03-22T22:22:26.555Z,99.90
2019-03-22T22:25:02.934Z,99.90
2019-03-22T22:27:39.655Z,99.90
2019-03-22T22:30:16.320Z,99.90
2019-03-22T22:32:53.561Z,99.90
2019-03-22T22:35:29.965Z,99.90
2019-03-22T22:38:05.457Z,99.90
2019-03-22T22:40:41.500Z,99.90
2019-03-22T22:43:15.548Z,99.90
2019-03-22T22:45:50.158Z,99.90
2019-03-22T22:48:24.911Z,99.90
2019-03-22T22:50:59.765Z,99.90
2019-03-22T22:53:31.768Z,99.90
2019-03-22T22:56:03.182Z,99.90
2019-03-22T22:58:35.474Z,99.90
2019-03-22T23:01:06.828Z,99.90
2019-03-22T23:03:38.297Z,99.90
2019-03-22T23:06:13.083Z,99.90
2019-03-22T23:08:44.604Z,99.90
2019-03-22T23:11:18.923Z,99.90
2019-03-22T23:13:50.244Z,99.90
2019-03-22T23:16:21.540Z,99.90
2019-03-22T23:18:52.839Z,99.90
2019-03-22T23:21:24.187Z,99.90
2019-03-22T23:23:55.594Z,99.80
2019-03-22T23:26:37.658Z,99.80
2019-03-22T23:29:07.851Z,99.60
2019-03-22T23:31:39.222Z,99.60
2019-03-22T23:34:10.531Z,99.50
2019-03-22T23:37:07.279Z,99.50
2019-03-22T23:39:40.277Z,99.50
2019-03-22T23:42:11.542Z,99.40
2019-03-22T23:44:42.825Z,99.40
2019-03-22T23:47:15.108Z,99.30
2019-03-22T23:49:46.436Z,99.60
2019-03-22T23:52:17.713Z,99.20
2019-03-22T23:54:49.053Z,99.20
2019-03-22T23:57:20.491Z,99.10
2019-03-22T23:59:51.833Z,99.00
